sensor_id;sensor_type;location;lat;lon;timestamp;temperature;humidity
24041;DHT22;12246;47.612;18.906;2022-11-15T00:02:10;3.30;99.90
24041;DHT22;12246;47.612;18.906;2022-11-15T00:05:03;3.20;99.90
24041;DHT22;12246;47.612;18.906;2022-11-15T00:07:56;3.20;99.90
24041;DHT22;12246;47.612;18.906;2022-11-15T00:10:59;3.10;99.90
24041;DHT22;12246;47.612;18.906;2022-11-15T00:13:55;3.10;99.90
24041;DHT22;12246;47.612;18.906;2022-11-15T00:16:47;3.20;99.90
24041;DHT22;12246;47.612;18.906;2022-11-15T00:19:39;3.20;99.90
24041;DHT22;12246;47.612;18.906;2022-11-15T00:22:33;3.20;99.90
24041;DHT22;12246;47.612;18.906;2022-11-15T00:25:25;3.20;99.90
24041;DHT22;12246;47.612;18.906;2022-11-15T00:28:20;3.30;99.90
24041;DHT22;12246;47.612;18.906;2022-11-15T00:31:13;3.30;99.90
24041;DHT22;12246;47.612;18.906;2022-11-15T00:34:06;3.20;99.90
24041;DHT22;12246;47.612;18.906;2022-11-15T00:36:58;3.20;99.90
24041;DHT22;12246;47.612;18.906;2022-11-15T00:39:50;3.20;99.90
24041;DHT22;12246;47.612;18.906;2022-11-15T00:42:42;3.20;99.90
24041;DHT22;12246;47.612;18.906;2022-11-15T00:45:34;3.30;99.90
24041;DHT22;12246;47.612;18.906;2022-11-15T00:48:27;3.30;99.90
24041;DHT22;12246;47.612;18.906;2022-11-15T00:51:19;3.20;99.90
24041;DHT22;12246;47.612;18.906;2022-11-15T00:54:11;3.20;99.90
24041;DHT22;12246;47.612;18.906;2022-11-15T00:57:03;3.20;99.90
24041;DHT22;12246;47.612;18.906;2022-11-15T00:59:56;3.30;99.90
24041;DHT22;12246;47.612;18.906;2022-11-15T01:02:48;3.30;99.90
24041;DHT22;12246;47.612;18.906;2022-11-15T01:05:40;3.30;99.90
24041;DHT22;12246;47.612;18.906;2022-11-15T01:08:33;3.40;99.90
24041;DHT22;12246;47.612;18.906;2022-11-15T01:11:25;3.40;99.90
24041;DHT22;12246;47.612;18.906;2022-11-15T01:14:17;3.40;99.90
24041;DHT22;12246;47.612;18.906;2022-11-15T01:17:16;3.50;99.90
24041;DHT22;12246;47.612;18.906;2022-11-15T01:20:08;3.40;99.90
24041;DHT22;12246;47.612;18.906;2022-11-15T01:23:01;3.40;99.90
24041;DHT22;12246;47.612;18.906;2022-11-15T01:25:59;3.40;99.90
24041;DHT22;12246;47.612;18.906;2022-11-15T01:28:51;3.40;99.90
24041;DHT22;12246;47.612;18.906;2022-11-15T01:31:44;3.50;99.90
24041;DHT22;12246;47.612;18.906;2022-11-15T01:34:36;3.50;99.90
24041;DHT22;12246;47.612;18.906;2022-11-15T01:37:28;3.50;99.90
24041;DHT22;12246;47.612;18.906;2022-11-15T01:40:20;3.60;99.90
24041;DHT22;12246;47.612;18.906;2022-11-15T01:43:23;3.50;99.90
24041;DHT22;12246;47.612;18.906;2022-11-15T01:49:20;3.60;99.90
24041;DHT22;12246;47.612;18.906;2022-11-15T01:52:17;3.70;99.90
24041;DHT22;12246;47.612;18.906;2022-11-15T01:55:25;3.80;99.90
24041;DHT22;12246;47.612;18.906;2022-11-15T01:58:18;3.90;99.90
24041;DHT22;12246;47.612;18.906;2022-11-15T02:01:10;3.90;99.90
24041;DHT22;12246;47.612;18.906;2022-11-15T02:07:04;3.90;99.90
24041;DHT22;12246;47.612;18.906;2022-11-15T02:10:06;3.90;99.90
24041;DHT22;12246;47.612;18.906;2022-11-15T02:13:00;3.90;99.90
24041;DHT22;12246;47.612;18.906;2022-11-15T02:16:12;4.00;99.90
24041;DHT22;12246;47.612;18.906;2022-11-15T02:19:40;4.10;99.90
24041;DHT22;12246;47.612;18.906;2022-11-15T02:22:46;4.10;99.90
24041;DHT22;12246;47.612;18.906;2022-11-15T02:26:23;4.20;99.90
24041;DHT22;12246;47.612;18.906;2022-11-15T02:33:03;4.10;99.90
24041;DHT22;12246;47.612;18.906;2022-11-15T02:42:36;4.40;99.90
24041;DHT22;12246;47.612;18.906;2022-11-15T02:45:58;4.40;99.90
24041;DHT22;12246;47.612;18.906;2022-11-15T02:48:51;4.30;99.90
24041;DHT22;12246;47.612;18.906;2022-11-15T02:51:46;4.20;99.90
24041;DHT22;12246;47.612;18.906;2022-11-15T02:54:39;4.30;99.90
24041;DHT22;12246;47.612;18.906;2022-11-15T03:00:28;4.30;99.90
24041;DHT22;12246;47.612;18.906;2022-11-15T03:06:22;4.20;99.90
24041;DHT22;12246;47.612;18.906;2022-11-15T03:09:34;4.20;99.90
24041;DHT22;12246;47.612;18.906;2022-11-15T03:12:34;4.30;99.90
24041;DHT22;12246;47.612;18.906;2022-11-15T03:15:32;4.30;99.90
24041;DHT22;12246;47.612;18.906;2022-11-15T03:18:33;4.10;99.90
24041;DHT22;12246;47.612;18.906;2022-11-15T03:21:28;4.00;99.90
24041;DHT22;12246;47.612;18.906;2022-11-15T03:24:21;4.10;99.90
24041;DHT22;12246;47.612;18.906;2022-11-15T03:27:21;4.10;99.90
24041;DHT22;12246;47.612;18.906;2022-11-15T03:30:14;4.00;99.90
24041;DHT22;12246;47.612;18.906;2022-11-15T03:33:08;3.90;99.90
24041;DHT22;12246;47.612;18.906;2022-11-15T03:36:00;3.90;99.90
24041;DHT22;12246;47.612;18.906;2022-11-15T03:38:56;3.90;99.90
24041;DHT22;12246;47.612;18.906;2022-11-15T03:48:27;3.90;99.90
24041;DHT22;12246;47.612;18.906;2022-11-15T03:51:12;4.00;99.90
24041;DHT22;12246;47.612;18.906;2022-11-15T03:54:04;3.90;99.90
24041;DHT22;12246;47.612;18.906;2022-11-15T03:56:56;4.00;99.90
24041;DHT22;12246;47.612;18.906;2022-11-15T03:59:49;4.10;99.90
24041;DHT22;12246;47.612;18.906;2022-11-15T04:02:41;4.20;99.90
24041;DHT22;12246;47.612;18.906;2022-11-15T04:05:33;4.30;99.90
24041;DHT22;12246;47.612;18.906;2022-11-15T04:08:25;4.10;99.90
24041;DHT22;12246;47.612;18.906;2022-11-15T04:11:17;4.00;99.90
24041;DHT22;12246;47.612;18.906;2022-11-15T04:14:10;4.10;99.90
24041;DHT22;12246;47.612;18.906;2022-11-15T04:17:02;4.10;99.90
24041;DHT22;12246;47.612;18.906;2022-11-15T04:19:54;4.20;99.90
24041;DHT22;12246;47.612;18.906;2022-11-15T04:23:11;4.30;99.90
24041;DHT22;12246;47.612;18.906;2022-11-15T04:26:23;4.40;99.90
24041;DHT22;12246;47.612;18.906;2022-11-15T04:29:15;4.40;99.90
24041;DHT22;12246;47.612;18.906;2022-11-15T04:32:26;4.30;99.90
24041;DHT22;12246;47.612;18.906;2022-11-15T04:35:18;4.40;99.90
24041;DHT22;12246;47.612;18.906;2022-11-15T04:38:11;4.50;99.90
24041;DHT22;12246;47.612;18.906;2022-11-15T04:41:03;4.50;99.90
24041;DHT22;12246;47.612;18.906;2022-11-15T04:43:55;4.50;99.90
24041;DHT22;12246;47.612;18.906;2022-11-15T04:46:48;4.60;99.90
24041;DHT22;12246;47.612;18.906;2022-11-15T04:49:40;4.50;99.90
24041;DHT22;12246;47.612;18.906;2022-11-15T04:52:32;4.30;99.90
24041;DHT22;12246;47.612;18.906;2022-11-15T04:55:24;4.40;99.90
24041;DHT22;12246;47.612;18.906;2022-11-15T04:58:16;4.40;99.90
24041;DHT22;12246;47.612;18.906;2022-11-15T05:01:12;4.30;99.90
24041;DHT22;12246;47.612;18.906;2022-11-15T05:04:07;4.20;99.90
24041;DHT22;12246;47.612;18.906;2022-11-15T05:07:12;4.20;99.90
24041;DHT22;12246;47.612;18.906;2022-11-15T05:10:04;4.30;99.90
24041;DHT22;12246;47.612;18.906;2022-11-15T05:12:56;4.30;99.90
24041;DHT22;12246;47.612;18.906;2022-11-15T05:15:49;4.20;99.90
24041;DHT22;12246;47.612;18.906;2022-11-15T05:18:41;4.10;99.90
24041;DHT22;12246;47.612;18.906;2022-11-15T05:21:33;4.20;99.90
24041;DHT22;12246;47.612;18.906;2022-11-15T05:24:26;4.20;99.90
24041;DHT22;12246;47.612;18.906;2022-11-15T05:27:18;4.10;99.90
24041;DHT22;12246;47.612;18.906;2022-11-15T05:30:10;4.20;99.90
24041;DHT22;12246;47.612;18.906;2022-11-15T05:33:03;4.30;99.90
24041;DHT22;12246;47.612;18.906;2022-11-15T05:36:07;4.50;99.90
24041;DHT22;12246;47.612;18.906;2022-11-15T05:39:02;4.60;99.90
24041;DHT22;12246;47.612;18.906;2022-11-15T05:42:00;4.70;99.90
24041;DHT22;12246;47.612;18.906;2022-11-15T05:44:53;4.60;99.90
24041;DHT22;12246;47.612;18.906;2022-11-15T05:47:46;4.60;99.90
24041;DHT22;12246;47.612;18.906;2022-11-15T05:50:42;4.80;99.90
24041;DHT22;12246;47.612;18.906;2022-11-15T05:53:36;5.00;99.90
24041;DHT22;12246;47.612;18.906;2022-11-15T05:56:29;5.00;99.90
24041;DHT22;12246;47.612;18.906;2022-11-15T05:59:22;5.10;99.90
24041;DHT22;12246;47.612;18.906;2022-11-15T06:02:14;5.20;99.90
24041;DHT22;12246;47.612;18.906;2022-11-15T06:05:06;5.20;99.90
24041;DHT22;12246;47.612;18.906;2022-11-15T06:07:58;5.10;99.90
24041;DHT22;12246;47.612;18.906;2022-11-15T06:10:51;5.00;99.90
24041;DHT22;12246;47.612;18.906;2022-11-15T06:13:43;4.90;99.90
24041;DHT22;12246;47.612;18.906;2022-11-15T06:16:35;4.90;99.90
24041;DHT22;12246;47.612;18.906;2022-11-15T06:19:27;4.80;99.90
24041;DHT22;12246;47.612;18.906;2022-11-15T06:22:19;4.80;99.90
24041;DHT22;12246;47.612;18.906;2022-11-15T06:25:11;4.80;99.90
24041;DHT22;12246;47.612;18.906;2022-11-15T06:28:04;4.80;99.90
24041;DHT22;12246;47.612;18.906;2022-11-15T06:31:01;4.80;99.90
24041;DHT22;12246;47.612;18.906;2022-11-15T06:33:53;4.80;99.90
24041;DHT22;12246;47.612;18.906;2022-11-15T06:36:45;4.90;99.90
24041;DHT22;12246;47.612;18.906;2022-11-15T06:39:38;4.90;99.90
24041;DHT22;12246;47.612;18.906;2022-11-15T06:42:30;4.90;99.90
24041;DHT22;12246;47.612;18.906;2022-11-15T06:45:22;4.90;99.90
24041;DHT22;12246;47.612;18.906;2022-11-15T06:48:14;5.00;99.90
24041;DHT22;12246;47.612;18.906;2022-11-15T06:51:06;5.10;99.90
24041;DHT22;12246;47.612;18.906;2022-11-15T06:54:00;5.20;99.90
24041;DHT22;12246;47.612;18.906;2022-11-15T06:56:52;5.20;99.90
24041;DHT22;12246;47.612;18.906;2022-11-15T06:59:44;5.20;99.90
24041;DHT22;12246;47.612;18.906;2022-11-15T07:02:36;5.20;99.90
24041;DHT22;12246;47.612;18.906;2022-11-15T07:05:29;5.30;99.90
24041;DHT22;12246;47.612;18.906;2022-11-15T07:08:22;5.40;99.90
24041;DHT22;12246;47.612;18.906;2022-11-15T07:11:15;5.50;99.90
24041;DHT22;12246;47.612;18.906;2022-11-15T07:14:07;5.50;99.90
24041;DHT22;12246;47.612;18.906;2022-11-15T07:16:59;5.50;99.90
24041;DHT22;12246;47.612;18.906;2022-11-15T07:19:51;5.40;99.90
24041;DHT22;12246;47.612;18.906;2022-11-15T07:22:44;5.40;99.90
24041;DHT22;12246;47.612;18.906;2022-11-15T07:25:39;5.40;99.90
24041;DHT22;12246;47.612;18.906;2022-11-15T07:28:32;5.40;99.90
24041;DHT22;12246;47.612;18.906;2022-11-15T07:31:24;5.40;99.90
24041;DHT22;12246;47.612;18.906;2022-11-15T07:34:17;5.30;99.90
24041;DHT22;12246;47.612;18.906;2022-11-15T07:37:09;5.40;99.90
24041;DHT22;12246;47.612;18.906;2022-11-15T07:40:02;5.40;99.90
24041;DHT22;12246;47.612;18.906;2022-11-15T07:43:05;5.50;99.90
24041;DHT22;12246;47.612;18.906;2022-11-15T07:45:58;5.70;99.90
24041;DHT22;12246;47.612;18.906;2022-11-15T07:48:50;5.70;99.90
24041;DHT22;12246;47.612;18.906;2022-11-15T07:51:44;5.60;99.90
24041;DHT22;12246;47.612;18.906;2022-11-15T07:54:36;5.60;99.90
24041;DHT22;12246;47.612;18.906;2022-11-15T07:57:29;5.70;99.90
24041;DHT22;12246;47.612;18.906;2022-11-15T08:00:21;5.80;99.90
24041;DHT22;12246;47.612;18.906;2022-11-15T08:03:15;5.90;99.90
24041;DHT22;12246;47.612;18.906;2022-11-15T08:06:07;5.90;99.90
24041;DHT22;12246;47.612;18.906;2022-11-15T08:08:59;6.00;99.90
24041;DHT22;12246;47.612;18.906;2022-11-15T08:11:51;6.10;99.90
24041;DHT22;12246;47.612;18.906;2022-11-15T08:14:44;6.20;99.90
24041;DHT22;12246;47.612;18.906;2022-11-15T08:17:36;6.20;99.90
24041;DHT22;12246;47.612;18.906;2022-11-15T08:20:29;6.20;99.90
24041;DHT22;12246;47.612;18.906;2022-11-15T08:23:22;6.20;99.90
24041;DHT22;12246;47.612;18.906;2022-11-15T08:26:14;6.30;99.90
24041;DHT22;12246;47.612;18.906;2022-11-15T08:29:06;6.30;99.90
24041;DHT22;12246;47.612;18.906;2022-11-15T08:32:00;6.20;99.90
24041;DHT22;12246;47.612;18.906;2022-11-15T08:34:52;6.30;99.90
24041;DHT22;12246;47.612;18.906;2022-11-15T08:37:45;6.40;99.90
24041;DHT22;12246;47.612;18.906;2022-11-15T08:40:37;6.40;99.90
24041;DHT22;12246;47.612;18.906;2022-11-15T08:43:30;6.40;99.90
24041;DHT22;12246;47.612;18.906;2022-11-15T08:46:23;6.30;99.90
24041;DHT22;12246;47.612;18.906;2022-11-15T08:49:15;6.30;99.90
24041;DHT22;12246;47.612;18.906;2022-11-15T08:52:07;6.40;99.90
24041;DHT22;12246;47.612;18.906;2022-11-15T08:55:00;6.30;99.90
24041;DHT22;12246;47.612;18.906;2022-11-15T08:57:52;6.40;99.90
24041;DHT22;12246;47.612;18.906;2022-11-15T09:00:44;6.50;99.90
24041;DHT22;12246;47.612;18.906;2022-11-15T09:03:36;6.60;99.90
24041;DHT22;12246;47.612;18.906;2022-11-15T09:06:28;6.70;99.90
24041;DHT22;12246;47.612;18.906;2022-11-15T09:09:20;6.60;99.90
24041;DHT22;12246;47.612;18.906;2022-11-15T09:12:13;6.70;99.90
24041;DHT22;12246;47.612;18.906;2022-11-15T09:15:06;6.70;99.90
24041;DHT22;12246;47.612;18.906;2022-11-15T09:17:59;6.70;99.90
24041;DHT22;12246;47.612;18.906;2022-11-15T09:20:51;6.70;99.90
24041;DHT22;12246;47.612;18.906;2022-11-15T09:23:46;6.70;99.90
24041;DHT22;12246;47.612;18.906;2022-11-15T09:26:39;6.70;99.90
24041;DHT22;12246;47.612;18.906;2022-11-15T09:29:31;6.80;99.90
24041;DHT22;12246;47.612;18.906;2022-11-15T09:32:23;6.80;99.90
24041;DHT22;12246;47.612;18.906;2022-11-15T09:35:16;6.90;99.90
24041;DHT22;12246;47.612;18.906;2022-11-15T09:38:08;7.00;99.90
24041;DHT22;12246;47.612;18.906;2022-11-15T09:44:28;7.30;99.90
24041;DHT22;12246;47.612;18.906;2022-11-15T09:48:03;7.30;99.90
24041;DHT22;12246;47.612;18.906;2022-11-15T09:50:59;7.30;99.90
24041;DHT22;12246;47.612;18.906;2022-11-15T10:00:42;7.30;99.90
24041;DHT22;12246;47.612;18.906;2022-11-15T10:03:40;7.30;99.90
24041;DHT22;12246;47.612;18.906;2022-11-15T10:06:38;7.40;99.90
24041;DHT22;12246;47.612;18.906;2022-11-15T10:09:45;7.30;99.90
24041;DHT22;12246;47.612;18.906;2022-11-15T10:12:45;7.40;99.90
24041;DHT22;12246;47.612;18.906;2022-11-15T10:15:37;7.40;99.90
24041;DHT22;12246;47.612;18.906;2022-11-15T10:18:58;7.40;99.90
24041;DHT22;12246;47.612;18.906;2022-11-15T10:22:28;7.30;99.90
24041;DHT22;12246;47.612;18.906;2022-11-15T10:25:24;7.40;99.90
24041;DHT22;12246;47.612;18.906;2022-11-15T10:31:27;7.40;99.90
24041;DHT22;12246;47.612;18.906;2022-11-15T10:34:26;7.50;99.90
24041;DHT22;12246;47.612;18.906;2022-11-15T10:37:31;7.40;99.90
24041;DHT22;12246;47.612;18.906;2022-11-15T10:40:24;7.50;99.90
24041;DHT22;12246;47.612;18.906;2022-11-15T10:43:18;7.50;99.90
24041;DHT22;12246;47.612;18.906;2022-11-15T10:46:22;7.50;99.90
24041;DHT22;12246;47.612;18.906;2022-11-15T10:49:35;7.50;99.90
24041;DHT22;12246;47.612;18.906;2022-11-15T10:52:29;7.40;99.90
24041;DHT22;12246;47.612;18.906;2022-11-15T10:55:26;7.40;99.90
24041;DHT22;12246;47.612;18.906;2022-11-15T10:58:36;7.40;99.90
24041;DHT22;12246;47.612;18.906;2022-11-15T11:01:29;7.40;99.90
24041;DHT22;12246;47.612;18.906;2022-11-15T11:04:24;7.40;99.90
24041;DHT22;12246;47.612;18.906;2022-11-15T11:07:36;7.40;99.90
24041;DHT22;12246;47.612;18.906;2022-11-15T11:10:30;7.40;99.90
24041;DHT22;12246;47.612;18.906;2022-11-15T11:13:42;7.40;99.90
24041;DHT22;12246;47.612;18.906;2022-11-15T11:16:42;7.40;99.90
24041;DHT22;12246;47.612;18.906;2022-11-15T11:26:33;7.30;99.90
24041;DHT22;12246;47.612;18.906;2022-11-15T11:30:09;7.30;99.90
24041;DHT22;12246;47.612;18.906;2022-11-15T11:33:17;7.30;99.90
24041;DHT22;12246;47.612;18.906;2022-11-15T11:39:24;7.30;99.90
24041;DHT22;12246;47.612;18.906;2022-11-15T11:51:54;7.40;99.90
24041;DHT22;12246;47.612;18.906;2022-11-15T11:58:42;7.40;99.90
24041;DHT22;12246;47.612;18.906;2022-11-15T12:01:51;7.40;99.90
24041;DHT22;12246;47.612;18.906;2022-11-15T12:04:47;7.40;99.90
24041;DHT22;12246;47.612;18.906;2022-11-15T12:07:41;7.30;99.90
24041;DHT22;12246;47.612;18.906;2022-11-15T12:10:34;7.30;99.90
24041;DHT22;12246;47.612;18.906;2022-11-15T12:13:29;7.30;99.90
24041;DHT22;12246;47.612;18.906;2022-11-15T12:16:32;7.30;99.90
24041;DHT22;12246;47.612;18.906;2022-11-15T12:19:25;7.30;99.90
24041;DHT22;12246;47.612;18.906;2022-11-15T12:25:47;7.30;99.90
24041;DHT22;12246;47.612;18.906;2022-11-15T12:28:59;7.30;99.90
24041;DHT22;12246;47.612;18.906;2022-11-15T12:31:59;7.30;99.90
24041;DHT22;12246;47.612;18.906;2022-11-15T12:34:53;7.30;99.90
24041;DHT22;12246;47.612;18.906;2022-11-15T12:37:49;7.30;99.90
24041;DHT22;12246;47.612;18.906;2022-11-15T12:41:13;7.30;99.90
24041;DHT22;12246;47.612;18.906;2022-11-15T12:47:26;7.30;99.90
24041;DHT22;12246;47.612;18.906;2022-11-15T12:51:11;7.20;99.90
24041;DHT22;12246;47.612;18.906;2022-11-15T12:53:56;7.20;99.90
24041;DHT22;12246;47.612;18.906;2022-11-15T13:03:22;7.20;99.90
24041;DHT22;12246;47.612;18.906;2022-11-15T13:06:37;7.20;99.90
24041;DHT22;12246;47.612;18.906;2022-11-15T13:18:35;7.20;99.90
24041;DHT22;12246;47.612;18.906;2022-11-15T13:21:31;7.10;99.90
24041;DHT22;12246;47.612;18.906;2022-11-15T13:24:42;7.10;99.90
24041;DHT22;12246;47.612;18.906;2022-11-15T13:27:34;7.10;99.90
24041;DHT22;12246;47.612;18.906;2022-11-15T13:30:30;7.10;99.90
24041;DHT22;12246;47.612;18.906;2022-11-15T13:36:30;7.10;99.90
24041;DHT22;12246;47.612;18.906;2022-11-15T13:39:30;7.10;99.90
24041;DHT22;12246;47.612;18.906;2022-11-15T13:42:28;7.10;99.90
24041;DHT22;12246;47.612;18.906;2022-11-15T13:45:20;7.00;99.90
24041;DHT22;12246;47.612;18.906;2022-11-15T13:48:12;7.10;99.90
24041;DHT22;12246;47.612;18.906;2022-11-15T14:00:40;7.10;99.90
24041;DHT22;12246;47.612;18.906;2022-11-15T14:03:49;7.10;99.90
24041;DHT22;12246;47.612;18.906;2022-11-15T14:06:49;7.10;99.90
24041;DHT22;12246;47.612;18.906;2022-11-15T14:09:41;7.20;99.90
24041;DHT22;12246;47.612;18.906;2022-11-15T14:12:37;7.10;99.90
24041;DHT22;12246;47.612;18.906;2022-11-15T14:15:35;7.10;99.90
24041;DHT22;12246;47.612;18.906;2022-11-15T14:21:32;7.10;99.90
24041;DHT22;12246;47.612;18.906;2022-11-15T14:24:30;7.10;99.90
24041;DHT22;12246;47.612;18.906;2022-11-15T14:27:28;7.00;99.90
24041;DHT22;12246;47.612;18.906;2022-11-15T14:30:21;7.10;99.90
24041;DHT22;12246;47.612;18.906;2022-11-15T14:36:18;7.10;99.90
24041;DHT22;12246;47.612;18.906;2022-11-15T14:39:11;7.10;99.90
24041;DHT22;12246;47.612;18.906;2022-11-15T14:42:05;7.10;99.90
24041;DHT22;12246;47.612;18.906;2022-11-15T14:44:57;7.00;99.90
24041;DHT22;12246;47.612;18.906;2022-11-15T14:47:50;7.00;99.90
24041;DHT22;12246;47.612;18.906;2022-11-15T14:50:42;7.00;99.90
24041;DHT22;12246;47.612;18.906;2022-11-15T14:53:35;7.00;99.90
24041;DHT22;12246;47.612;18.906;2022-11-15T14:56:27;7.00;99.90
24041;DHT22;12246;47.612;18.906;2022-11-15T14:59:19;7.00;99.90
24041;DHT22;12246;47.612;18.906;2022-11-15T15:02:20;7.00;99.90
24041;DHT22;12246;47.612;18.906;2022-11-15T15:08:10;6.90;99.90
24041;DHT22;12246;47.612;18.906;2022-11-15T15:11:09;6.80;99.90
24041;DHT22;12246;47.612;18.906;2022-11-15T15:14:02;6.90;99.90
24041;DHT22;12246;47.612;18.906;2022-11-15T15:16:54;6.80;99.90
24041;DHT22;12246;47.612;18.906;2022-11-15T15:19:47;6.80;99.90
24041;DHT22;12246;47.612;18.906;2022-11-15T15:22:39;6.90;99.90
24041;DHT22;12246;47.612;18.906;2022-11-15T15:25:35;6.90;99.90
24041;DHT22;12246;47.612;18.906;2022-11-15T15:28:27;6.80;99.90
24041;DHT22;12246;47.612;18.906;2022-11-15T15:31:25;6.80;99.90
24041;DHT22;12246;47.612;18.906;2022-11-15T15:34:17;6.80;99.90
24041;DHT22;12246;47.612;18.906;2022-11-15T15:37:25;6.80;99.90
24041;DHT22;12246;47.612;18.906;2022-11-15T15:40:20;6.80;99.90
24041;DHT22;12246;47.612;18.906;2022-11-15T15:43:12;6.80;99.90
24041;DHT22;12246;47.612;18.906;2022-11-15T15:46:07;6.80;99.90
24041;DHT22;12246;47.612;18.906;2022-11-15T15:49:00;6.90;99.90
24041;DHT22;12246;47.612;18.906;2022-11-15T15:51:52;6.90;99.90
24041;DHT22;12246;47.612;18.906;2022-11-15T15:54:44;6.90;99.90
24041;DHT22;12246;47.612;18.906;2022-11-15T15:57:36;7.00;99.90
24041;DHT22;12246;47.612;18.906;2022-11-15T16:00:29;7.00;99.90
24041;DHT22;12246;47.612;18.906;2022-11-15T16:03:21;6.90;99.90
24041;DHT22;12246;47.612;18.906;2022-11-15T16:06:38;7.00;99.90
24041;DHT22;12246;47.612;18.906;2022-11-15T16:09:31;7.00;99.90
24041;DHT22;12246;47.612;18.906;2022-11-15T16:12:42;7.00;99.90
24041;DHT22;12246;47.612;18.906;2022-11-15T16:15:35;7.00;99.90
24041;DHT22;12246;47.612;18.906;2022-11-15T16:18:27;7.00;99.90
24041;DHT22;12246;47.612;18.906;2022-11-15T16:21:19;7.00;99.90
24041;DHT22;12246;47.612;18.906;2022-11-15T16:24:11;7.10;99.90
24041;DHT22;12246;47.612;18.906;2022-11-15T16:27:04;7.00;99.90
24041;DHT22;12246;47.612;18.906;2022-11-15T16:29:56;7.10;99.90
24041;DHT22;12246;47.612;18.906;2022-11-15T16:32:48;7.10;99.90
24041;DHT22;12246;47.612;18.906;2022-11-15T16:35:40;7.10;99.90
24041;DHT22;12246;47.612;18.906;2022-11-15T16:38:32;7.10;99.90
24041;DHT22;12246;47.612;18.906;2022-11-15T16:41:25;7.20;99.90
24041;DHT22;12246;47.612;18.906;2022-11-15T16:44:18;7.10;99.90
24041;DHT22;12246;47.612;18.906;2022-11-15T16:47:20;7.20;99.90
24041;DHT22;12246;47.612;18.906;2022-11-15T16:50:27;7.10;99.90
24041;DHT22;12246;47.612;18.906;2022-11-15T16:53:19;7.10;99.90
24041;DHT22;12246;47.612;18.906;2022-11-15T16:56:27;7.20;99.90
24041;DHT22;12246;47.612;18.906;2022-11-15T16:59:20;7.20;99.90
24041;DHT22;12246;47.612;18.906;2022-11-15T17:02:12;7.20;99.90
24041;DHT22;12246;47.612;18.906;2022-11-15T17:05:05;7.20;99.90
24041;DHT22;12246;47.612;18.906;2022-11-15T17:08:01;7.20;99.90
24041;DHT22;12246;47.612;18.906;2022-11-15T17:10:54;7.10;99.90
24041;DHT22;12246;47.612;18.906;2022-11-15T17:13:46;7.00;99.90
24041;DHT22;12246;47.612;18.906;2022-11-15T17:16:40;7.00;99.90
24041;DHT22;12246;47.612;18.906;2022-11-15T17:19:35;7.00;99.90
24041;DHT22;12246;47.612;18.906;2022-11-15T17:22:27;7.00;99.90
24041;DHT22;12246;47.612;18.906;2022-11-15T17:25:19;7.00;99.90
24041;DHT22;12246;47.612;18.906;2022-11-15T17:28:11;7.10;99.90
24041;DHT22;12246;47.612;18.906;2022-11-15T17:31:11;7.20;99.90
24041;DHT22;12246;47.612;18.906;2022-11-15T17:34:05;7.20;99.90
24041;DHT22;12246;47.612;18.906;2022-11-15T17:36:57;7.20;99.90
24041;DHT22;12246;47.612;18.906;2022-11-15T17:39:49;7.20;99.90
24041;DHT22;12246;47.612;18.906;2022-11-15T17:42:42;7.10;99.90
24041;DHT22;12246;47.612;18.906;2022-11-15T17:45:34;7.10;99.90
24041;DHT22;12246;47.612;18.906;2022-11-15T17:48:31;7.10;99.90
24041;DHT22;12246;47.612;18.906;2022-11-15T17:51:24;7.10;99.90
24041;DHT22;12246;47.612;18.906;2022-11-15T17:54:16;7.10;99.90
24041;DHT22;12246;47.612;18.906;2022-11-15T17:57:09;7.10;99.90
24041;DHT22;12246;47.612;18.906;2022-11-15T18:00:01;7.10;99.90
24041;DHT22;12246;47.612;18.906;2022-11-15T18:02:55;7.20;99.90
24041;DHT22;12246;47.612;18.906;2022-11-15T18:05:48;7.20;99.90
24041;DHT22;12246;47.612;18.906;2022-11-15T18:08:42;7.20;99.90
24041;DHT22;12246;47.612;18.906;2022-11-15T18:11:39;7.10;99.90
24041;DHT22;12246;47.612;18.906;2022-11-15T18:14:31;7.00;99.90
24041;DHT22;12246;47.612;18.906;2022-11-15T18:17:24;7.10;99.90
24041;DHT22;12246;47.612;18.906;2022-11-15T18:20:16;7.20;99.90
24041;DHT22;12246;47.612;18.906;2022-11-15T18:23:08;7.10;99.90
24041;DHT22;12246;47.612;18.906;2022-11-15T18:26:02;7.20;99.90
24041;DHT22;12246;47.612;18.906;2022-11-15T18:28:56;7.10;99.90
24041;DHT22;12246;47.612;18.906;2022-11-15T18:31:53;7.10;99.90
24041;DHT22;12246;47.612;18.906;2022-11-15T18:34:48;7.20;99.90
24041;DHT22;12246;47.612;18.906;2022-11-15T18:37:40;7.30;99.90
24041;DHT22;12246;47.612;18.906;2022-11-15T18:40:32;7.30;99.90
24041;DHT22;12246;47.612;18.906;2022-11-15T18:43:26;7.30;99.90
24041;DHT22;12246;47.612;18.906;2022-11-15T18:46:20;7.20;99.90
24041;DHT22;12246;47.612;18.906;2022-11-15T18:49:13;7.30;99.90
24041;DHT22;12246;47.612;18.906;2022-11-15T18:52:07;7.30;99.90
24041;DHT22;12246;47.612;18.906;2022-11-15T18:54:59;7.40;99.90
24041;DHT22;12246;47.612;18.906;2022-11-15T18:57:51;7.40;99.90
24041;DHT22;12246;47.612;18.906;2022-11-15T19:00:43;7.40;99.90
24041;DHT22;12246;47.612;18.906;2022-11-15T19:03:38;7.30;99.90
24041;DHT22;12246;47.612;18.906;2022-11-15T19:06:30;7.30;99.90
24041;DHT22;12246;47.612;18.906;2022-11-15T19:09:23;7.20;99.90
24041;DHT22;12246;47.612;18.906;2022-11-15T19:12:22;7.10;99.90
24041;DHT22;12246;47.612;18.906;2022-11-15T19:15:14;7.10;99.90
24041;DHT22;12246;47.612;18.906;2022-11-15T19:18:06;7.20;99.90
24041;DHT22;12246;47.612;18.906;2022-11-15T19:21:03;6.90;99.90
24041;DHT22;12246;47.612;18.906;2022-11-15T19:23:57;6.80;99.90
24041;DHT22;12246;47.612;18.906;2022-11-15T19:26:49;6.80;99.90
24041;DHT22;12246;47.612;18.906;2022-11-15T19:29:41;6.70;99.90
24041;DHT22;12246;47.612;18.906;2022-11-15T19:32:33;6.70;99.90
24041;DHT22;12246;47.612;18.906;2022-11-15T19:35:26;6.70;99.90
24041;DHT22;12246;47.612;18.906;2022-11-15T19:38:18;6.60;99.90
24041;DHT22;12246;47.612;18.906;2022-11-15T19:41:12;6.60;99.90
24041;DHT22;12246;47.612;18.906;2022-11-15T19:44:05;6.60;99.90
24041;DHT22;12246;47.612;18.906;2022-11-15T19:46:57;6.60;99.90
24041;DHT22;12246;47.612;18.906;2022-11-15T19:49:50;6.60;99.90
24041;DHT22;12246;47.612;18.906;2022-11-15T19:52:42;6.60;99.90
24041;DHT22;12246;47.612;18.906;2022-11-15T19:55:34;6.60;99.90
24041;DHT22;12246;47.612;18.906;2022-11-15T19:58:26;6.70;99.90
24041;DHT22;12246;47.612;18.906;2022-11-15T20:01:24;6.70;99.90
24041;DHT22;12246;47.612;18.906;2022-11-15T20:04:17;6.70;99.90
24041;DHT22;12246;47.612;18.906;2022-11-15T20:07:10;6.60;99.90
24041;DHT22;12246;47.612;18.906;2022-11-15T20:10:02;6.70;99.90
24041;DHT22;12246;47.612;18.906;2022-11-15T20:12:54;6.70;99.90
24041;DHT22;12246;47.612;18.906;2022-11-15T20:15:46;6.70;99.90
24041;DHT22;12246;47.612;18.906;2022-11-15T20:18:39;6.70;99.90